Time;durP1;ratioP1;P1;durP2;ratioP2;P2;SDS_P1;SDS_P2;PMS_P1;PMS_P2;Temp;Humidity;BMP_temperature;BMP_pressure;BME280_temperature;BME280_humidity;BME280_pressure;Samples;Min_cycle;Max_cycle;Signal;HPM_P1;HPM_P2
2023/11/26 00:01:57;;;;;;;12.90;4.90;;;;;;;1.39;100.00;96300.25;5006868;28;20139;-70
2023/11/26 00:04:23;;;;;;;15.52;7.57;;;;;;;1.39;100.00;96296.75;4993080;28;20487;-70
2023/11/26 00:06:50;;;;;;;9.00;4.75;;;;;;;1.42;100.00;96296.13;5007155;28;20503;-71
2023/11/26 00:09:15;;;;;;;7.72;4.82;;;;;;;1.38;100.00;96293.25;4970213;28;20489;-71
2023/11/26 00:11:41;;;;;;;7.85;4.90;;;;;;;1.40;100.00;96295.66;5018405;28;20156;-72
2023/11/26 00:14:06;;;;;;;8.45;4.05;;;;;;;1.41;100.00;96302.66;4988824;28;20153;-69
2023/11/26 00:16:38;;;;;;;8.13;5.03;;;;;;;1.34;100.00;96293.09;5008610;28;20073;-71
2023/11/26 00:19:04;;;;;;;9.90;5.00;;;;;;;1.32;100.00;96306.13;4998829;28;20037;-70
2023/11/26 00:21:31;;;;;;;7.15;5.07;;;;;;;1.34;100.00;96297.72;5013440;28;20052;-70
2023/11/26 00:23:58;;;;;;;10.27;4.88;;;;;;;1.40;100.00;96311.84;5004998;28;20049;-70
2023/11/26 00:26:24;;;;;;;7.78;5.00;;;;;;;1.48;100.00;96311.84;5013398;28;20050;-70
2023/11/26 00:28:49;;;;;;;7.18;4.22;;;;;;;1.49;100.00;96318.03;5017725;28;20092;-69
2023/11/26 00:31:15;;;;;;;8.18;4.85;;;;;;;1.52;100.00;96320.09;5003619;28;20084;-70
2023/11/26 00:33:44;;;;;;;8.20;4.25;;;;;;;1.51;100.00;96324.72;5024961;28;20030;-70
2023/11/26 00:36:11;;;;;;;10.25;4.55;;;;;;;1.58;100.00;96324.22;5007857;28;20087;-70
2023/11/26 00:38:37;;;;;;;7.18;4.50;;;;;;;1.51;100.00;96329.31;5015576;28;20053;-70
2023/11/26 00:41:02;;;;;;;6.38;4.57;;;;;;;1.42;100.00;96331.19;5016739;28;20534;-70
2023/11/26 00:43:28;;;;;;;9.52;4.70;;;;;;;1.50;100.00;96319.63;5007006;28;20068;-70
2023/11/26 00:45:54;;;;;;;5.20;3.83;;;;;;;1.44;100.00;96327.09;5001263;28;20133;-69
2023/11/26 00:48:19;;;;;;;9.82;4.80;;;;;;;1.43;100.00;96324.72;5007275;28;20045;-70
2023/11/26 00:50:44;;;;;;;6.85;5.18;;;;;;;1.39;100.00;96324.53;5005858;28;20042;-70
2023/11/26 00:53:10;;;;;;;8.45;5.13;;;;;;;1.42;100.00;96331.19;4996503;28;20185;-70
2023/11/26 00:55:35;;;;;;;8.50;4.28;;;;;;;1.42;100.00;96326.59;5006958;28;20376;-70
2023/11/26 00:58:00;;;;;;;7.13;4.15;;;;;;;1.48;100.00;96332.66;5013700;28;20066;-69
2023/11/26 01:00:26;;;;;;;6.03;4.00;;;;;;;1.47;100.00;96328.34;5016769;28;20128;-69
2023/11/26 01:02:51;;;;;;;5.47;3.35;;;;;;;1.62;100.00;96327.91;5013846;28;20103;-70
2023/11/26 01:05:18;;;;;;;6.28;3.00;;;;;;;1.64;100.00;96331.06;4996859;28;20041;-69
2023/11/26 01:07:43;;;;;;;5.63;3.67;;;;;;;1.65;100.00;96335.34;5009785;28;20050;-70
2023/11/26 01:10:09;;;;;;;5.60;2.80;;;;;;;1.68;100.00;96333.94;5006226;28;20046;-70
2023/11/26 01:12:34;;;;;;;8.15;3.10;;;;;;;1.68;100.00;96348.22;5012670;28;20054;-70
2023/11/26 01:15:00;;;;;;;4.10;2.40;;;;;;;1.69;100.00;96349.00;5012692;28;20106;-70
2023/11/26 01:17:26;;;;;;;4.15;2.95;;;;;;;1.70;100.00;96342.50;4986443;28;20111;-69
2023/11/26 01:19:51;;;;;;;3.53;2.03;;;;;;;1.68;100.00;96345.50;5014992;28;20049;-71
2023/11/26 01:22:17;;;;;;;3.00;2.40;;;;;;;1.71;100.00;96349.47;5004672;28;20041;-69
2023/11/26 01:24:42;;;;;;;6.43;2.45;;;;;;;1.76;100.00;96343.91;5015165;28;20108;-69
2023/11/26 01:27:07;;;;;;;6.65;3.00;;;;;;;1.71;100.00;96355.69;5005325;28;20077;-70
2023/11/26 01:29:33;;;;;;;7.63;3.22;;;;;;;1.71;100.00;96354.88;4991646;28;20104;-69
2023/11/26 01:31:58;;;;;;;3.65;2.83;;;;;;;1.68;100.00;96356.31;5008783;28;20052;-69
2023/11/26 01:34:24;;;;;;;4.95;2.83;;;;;;;1.74;100.00;96362.34;5008546;28;20472;-71
2023/11/26 01:36:50;;;;;;;7.03;3.00;;;;;;;1.66;100.00;96363.94;4994483;28;20048;-70
2023/11/26 01:39:15;;;;;;;6.40;2.53;;;;;;;1.78;100.00;96365.22;5013391;28;20045;-70
2023/11/26 01:41:41;;;;;;;6.30;2.53;;;;;;;1.77;100.00;96363.63;4991195;28;20085;-69
2023/11/26 01:44:06;;;;;;;8.23;3.13;;;;;;;1.71;100.00;96371.88;5012128;28;20057;-71
2023/11/26 01:46:33;;;;;;;4.30;2.88;;;;;;;1.75;100.00;96374.75;5006237;28;20050;-70
2023/11/26 01:48:58;;;;;;;7.97;2.78;;;;;;;1.81;100.00;96378.88;4994375;28;20049;-69
2023/11/26 01:51:27;;;;;;;4.57;2.70;;;;;;;1.72;100.00;96391.56;4994468;28;20535;-70
2023/11/26 01:53:53;;;;;;;4.78;2.80;;;;;;;1.83;100.00;96395.53;5008029;28;20082;-70
2023/11/26 01:56:20;;;;;;;4.90;2.60;;;;;;;1.82;100.00;96382.34;5008175;28;20048;-70
2023/11/26 01:58:46;;;;;;;4.85;2.60;;;;;;;1.75;100.00;96382.03;5020610;28;20168;-70
2023/11/26 02:01:15;;;;;;;5.28;2.65;;;;;;;1.68;100.00;96372.50;4987410;28;20532;-70
2023/11/26 02:03:41;;;;;;;5.28;2.97;;;;;;;1.66;100.00;96382.06;5014352;28;20042;-70
2023/11/26 02:06:06;;;;;;;5.00;2.70;;;;;;;1.75;100.00;96398.22;5004455;28;20046;-69
2023/11/26 02:08:32;;;;;;;5.28;2.95;;;;;;;1.64;100.00;96381.53;5019285;28;20057;-70
2023/11/26 02:10:59;;;;;;;5.57;2.70;;;;;;;1.52;100.00;96391.06;5019034;28;20136;-69
2023/11/26 02:13:25;;;;;;;6.07;3.30;;;;;;;1.61;100.00;96395.69;5000602;28;20596;-70
2023/11/26 02:15:51;;;;;;;7.10;2.42;;;;;;;1.60;100.00;96392.19;5011352;28;20041;-70
2023/11/26 02:18:19;;;;;;;7.28;3.15;;;;;;;1.52;100.00;96401.88;5011975;28;20526;-70
2023/11/26 02:20:45;;;;;;;5.03;2.78;;;;;;;1.53;100.00;96413.44;5020206;28;20150;-70
2023/11/26 02:23:11;;;;;;;6.30;3.35;;;;;;;1.53;100.00;96408.06;4980604;28;20208;-70
2023/11/26 02:25:37;;;;;;;6.32;3.08;;;;;;;1.41;100.00;96405.19;5011286;28;20052;-70
2023/11/26 02:28:05;;;;;;;6.50;2.60;;;;;;;1.44;100.00;96399.97;5008247;28;20050;-70
2023/11/26 02:30:31;;;;;;;4.15;2.70;;;;;;;1.37;100.00;96409.59;5007907;28;20069;-70
2023/11/26 02:32:56;;;;;;;8.52;3.13;;;;;;;1.38;100.00;96395.81;5009960;28;20381;-70
2023/11/26 02:35:22;;;;;;;6.32;2.90;;;;;;;1.34;100.00;96408.34;4979087;28;20556;-69
2023/11/26 02:37:47;;;;;;;7.32;3.20;;;;;;;1.37;100.00;96404.22;5004607;28;20053;-70
2023/11/26 02:40:15;;;;;;;7.38;2.90;;;;;;;1.41;100.00;96407.91;5002549;28;20057;-69
2023/11/26 02:42:42;;;;;;;5.75;3.22;;;;;;;1.45;100.00;96404.22;5000474;28;20445;-70
2023/11/26 02:45:07;;;;;;;8.07;2.83;;;;;;;1.49;100.00;96402.50;5003788;28;20053;-69
2023/11/26 02:47:33;;;;;;;8.13;3.05;;;;;;;1.44;100.00;96420.75;5011127;28;20045;-70
2023/11/26 02:49:58;;;;;;;3.80;2.78;;;;;;;1.53;100.00;96416.97;4993186;28;20047;-70
2023/11/26 02:52:24;;;;;;;5.88;2.78;;;;;;;1.50;100.00;96412.19;5002452;28;20231;-70
2023/11/26 02:54:49;;;;;;;4.47;2.80;;;;;;;1.52;100.00;96420.75;4999748;28;20045;-70
2023/11/26 02:57:15;;;;;;;3.95;2.42;;;;;;;1.57;100.00;96425.22;4994147;28;20072;-70
2023/11/26 02:59:41;;;;;;;6.15;2.65;;;;;;;1.54;100.00;96420.44;5004674;28;20045;-71
2023/11/26 03:02:08;;;;;;;8.15;2.63;;;;;;;1.53;100.00;96430.47;4999743;28;20419;-69
2023/11/26 03:04:34;;;;;;;6.32;2.53;;;;;;;1.63;100.00;96426.66;4998884;28;20052;-68
2023/11/26 03:06:59;;;;;;;12.07;3.10;;;;;;;1.57;100.00;96432.50;4998335;28;20034;-68
2023/11/26 03:14:45;;;;;;;5.85;2.47;;;;;;;1.49;100.00;96432.19;4999255;28;20133;-69
2023/11/26 03:17:13;;;;;;;5.35;2.75;;;;;;;1.53;100.00;96435.03;5010285;28;20045;-70
2023/11/26 03:19:39;;;;;;;5.82;2.60;;;;;;;1.51;100.00;96431.88;5014418;28;20053;-70
2023/11/26 03:22:09;;;;;;;4.22;2.70;;;;;;;1.52;100.00;96428.84;5011858;28;20050;-70
2023/11/26 03:24:35;;;;;;;9.00;2.70;;;;;;;1.52;100.00;96436.97;5005745;28;20153;-70
2023/11/26 03:27:02;;;;;;;5.00;2.67;;;;;;;1.57;100.00;96441.44;4997884;28;20049;-70
2023/11/26 03:29:28;;;;;;;6.95;2.20;;;;;;;1.57;100.00;96444.13;5008565;28;20084;-70
2023/11/26 03:31:53;;;;;;;6.50;2.80;;;;;;;1.47;100.00;96439.78;5003240;28;20141;-70
2023/11/26 03:34:19;;;;;;;6.40;2.83;;;;;;;1.47;100.00;96447.09;4995269;28;20037;-69
2023/11/26 03:36:45;;;;;;;5.55;2.22;;;;;;;1.45;100.00;96457.44;5008030;28;20709;-70
2023/11/26 03:39:12;;;;;;;5.45;2.60;;;;;;;1.47;100.00;96453.28;5002028;28;20064;-69
2023/11/26 03:41:38;;;;;;;4.85;2.70;;;;;;;1.51;100.00;96454.28;5005803;28;20064;-69
2023/11/26 03:44:04;;;;;;;4.82;2.70;;;;;;;1.57;100.00;96446.81;5018009;28;20517;-69
2023/11/26 03:46:32;;;;;;;5.30;2.70;;;;;;;1.55;100.00;96449.03;5020515;28;20381;-70
2023/11/26 03:48:59;;;;;;;6.63;2.38;;;;;;;1.50;100.00;96454.59;5011778;28;20049;-70
2023/11/26 03:51:24;;;;;;;5.15;2.45;;;;;;;1.52;100.00;96455.06;4983027;28;20136;-70
2023/11/26 03:53:49;;;;;;;4.95;2.08;;;;;;;1.60;100.00;96451.56;5017936;28;20140;-69
2023/11/26 03:56:15;;;;;;;6.35;2.42;;;;;;;1.63;100.00;96458.25;4991537;28;20042;-70
2023/11/26 03:58:41;;;;;;;6.57;2.80;;;;;;;1.57;100.00;96457.63;5008368;28;20050;-68
2023/11/26 04:01:07;;;;;;;5.43;2.45;;;;;;;1.50;100.00;96460.78;5005740;28;20060;-70
2023/11/26 04:03:33;;;;;;;5.50;2.38;;;;;;;1.54;100.00;96458.25;5022710;28;20447;-69
2023/11/26 04:05:58;;;;;;;4.43;2.28;;;;;;;1.57;100.00;96454.09;5023121;28;20053;-69
2023/11/26 04:08:23;;;;;;;5.60;2.30;;;;;;;1.55;100.00;96461.72;4990388;28;20477;-69
2023/11/26 04:10:49;;;;;;;5.32;2.20;;;;;;;1.52;100.00;96461.25;5023019;28;20111;-70
2023/11/26 04:13:17;;;;;;;4.32;2.58;;;;;;;1.52;100.00;96466.66;5005476;28;20064;-70
2023/11/26 04:15:54;;;;;;;6.53;2.80;;;;;;;1.59;100.00;96470.81;4991056;28;20037;-70
2023/11/26 04:18:20;;;;;;;8.50;2.70;;;;;;;1.64;100.00;96463.34;5011676;28;20609;-70
2023/11/26 04:20:47;;;;;;;7.07;2.65;;;;;;;1.57;100.00;96479.22;5013092;28;20059;-70
2023/11/26 04:23:14;;;;;;;6.53;2.53;;;;;;;1.61;100.00;96479.38;5001786;28;20068;-70
2023/11/26 04:25:39;;;;;;;6.65;2.80;;;;;;;1.51;100.00;96483.16;5013732;28;20045;-70
2023/11/26 04:28:05;;;;;;;6.25;2.63;;;;;;;1.51;100.00;96491.25;4999438;28;20045;-70
2023/11/26 04:30:31;;;;;;;7.43;2.80;;;;;;;1.49;100.00;96496.16;5018168;28;20547;-71
2023/11/26 04:32:57;;;;;;;9.27;2.33;;;;;;;1.55;100.00;96502.22;5018723;28;20087;-71
2023/11/26 04:35:24;;;;;;;4.30;2.65;;;;;;;1.55;100.00;96494.94;5011312;28;20720;-70
2023/11/26 04:37:50;;;;;;;4.82;2.63;;;;;;;1.63;100.00;96498.75;5009136;28;20112;-70
2023/11/26 04:40:15;;;;;;;7.68;2.47;;;;;;;1.53;100.00;96507.94;5004696;28;20595;-70
2023/11/26 04:42:41;;;;;;;7.82;3.03;;;;;;;1.52;100.00;96512.53;5003459;28;20120;-70
2023/11/26 04:45:07;;;;;;;6.43;2.70;;;;;;;1.56;100.00;96514.63;4982038;28;20088;-70
2023/11/26 04:47:35;;;;;;;5.47;2.40;;;;;;;1.53;100.00;96514.13;5001412;28;20054;-70
2023/11/26 04:50:01;;;;;;;7.45;2.75;;;;;;;1.59;100.00;96511.31;5011099;28;20124;-69
2023/11/26 04:52:27;;;;;;;6.47;2.50;;;;;;;1.65;100.00;96512.75;5000945;28;20049;-71
2023/11/26 04:54:52;;;;;;;5.32;2.47;;;;;;;1.70;100.00;96513.38;5006066;28;20081;-70
2023/11/26 04:57:17;;;;;;;4.57;2.65;;;;;;;1.66;100.00;96509.72;5013450;28;20049;-70
2023/11/26 04:59:43;;;;;;;4.70;2.20;;;;;;;1.57;100.00;96508.09;4989290;28;20152;-70
2023/11/26 05:02:10;;;;;;;4.75;2.70;;;;;;;1.59;100.00;96520.19;5007983;28;20057;-71
2023/11/26 05:04:36;;;;;;;6.03;2.45;;;;;;;1.59;100.00;96525.59;5007071;28;20132;-71
2023/11/26 05:07:01;;;;;;;9.45;2.28;;;;;;;1.63;100.00;96517.66;5007858;28;20522;-71
2023/11/26 05:09:27;;;;;;;4.05;2.72;;;;;;;1.62;100.00;96518.75;5004456;28;20136;-71
2023/11/26 05:11:52;;;;;;;4.82;2.03;;;;;;;1.58;100.00;96525.91;5013889;28;20041;-72
2023/11/26 05:14:18;;;;;;;6.80;2.67;;;;;;;1.65;100.00;96529.72;5008794;28;20044;-71
2023/11/26 05:16:43;;;;;;;6.43;2.60;;;;;;;1.68;100.00;96536.41;5013821;28;20211;-71
2023/11/26 05:19:11;;;;;;;4.18;2.28;;;;;;;1.64;100.00;96530.84;5005128;28;20045;-71
2023/11/26 05:21:38;;;;;;;3.92;2.58;;;;;;;1.51;100.00;96537.94;5014764;28;20132;-70
2023/11/26 05:24:04;;;;;;;3.47;2.33;;;;;;;1.51;100.00;96543.34;4999922;28;20057;-74
2023/11/26 05:26:31;;;;;;;4.88;2.83;;;;;;;1.55;100.00;96550.81;5012101;28;20134;-71
2023/11/26 05:28:57;;;;;;;3.35;2.20;;;;;;;1.53;100.00;96549.22;5005779;28;20106;-70
2023/11/26 05:31:22;;;;;;;5.53;2.45;;;;;;;1.47;100.00;96558.56;4989957;28;20073;-70
2023/11/26 05:33:48;;;;;;;4.13;2.28;;;;;;;1.53;100.00;96557.31;4988754;28;20045;-71
2023/11/26 05:36:13;;;;;;;6.13;2.80;;;;;;;1.42;100.00;96561.38;4997896;28;20038;-70
2023/11/26 05:38:38;;;;;;;6.00;2.40;;;;;;;1.44;100.00;96569.19;5011447;28;20038;-69
2023/11/26 05:41:04;;;;;;;8.32;2.58;;;;;;;1.53;100.00;96567.31;5009985;28;20081;-72
2023/11/26 05:43:30;;;;;;;5.45;2.75;;;;;;;1.53;100.00;96578.09;5009154;28;20048;-68
2023/11/26 05:45:55;;;;;;;7.18;2.78;;;;;;;1.39;100.00;96567.44;5006757;28;20088;-71
2023/11/26 05:48:21;;;;;;;25.52;9.80;;;;;;;1.41;100.00;96573.31;4998431;28;20054;-71
2023/11/26 05:50:46;;;;;;;7.75;2.67;;;;;;;1.42;100.00;96569.47;5014190;28;20496;-70
2023/11/26 05:53:13;;;;;;;7.00;2.40;;;;;;;1.48;100.00;96580.97;4996388;28;20057;-70
2023/11/26 05:55:38;;;;;;;4.07;2.47;;;;;;;1.43;100.00;96573.78;4973745;28;20066;-70
2023/11/26 05:58:04;;;;;;;6.57;2.58;;;;;;;1.47;100.00;96585.53;4996623;28;20104;-73
2023/11/26 06:00:29;;;;;;;3.90;2.53;;;;;;;1.52;100.00;96579.22;5010783;28;20037;-71
2023/11/26 06:02:56;;;;;;;4.70;2.30;;;;;;;1.55;100.00;96588.59;5003747;28;20040;-72
2023/11/26 06:05:22;;;;;;;6.22;2.47;;;;;;;1.56;100.00;96598.31;5003097;28;20064;-69
2023/11/26 06:07:48;;;;;;;7.53;2.88;;;;;;;1.66;100.00;96600.75;4995095;28;20089;-71
2023/11/26 06:10:13;;;;;;;6.35;2.35;;;;;;;1.65;100.00;96602.63;5003023;28;20180;-71
2023/11/26 06:12:38;;;;;;;5.00;2.42;;;;;;;1.61;100.00;96607.06;5007378;28;20125;-70
2023/11/26 06:15:04;;;;;;;5.93;2.70;;;;;;;1.59;100.00;96616.59;4998893;28;20061;-69
2023/11/26 06:17:30;;;;;;;9.85;2.42;;;;;;;1.59;100.00;96621.97;4998745;28;20057;-70
2023/11/26 06:19:55;;;;;;;4.50;2.38;;;;;;;1.59;100.00;96621.97;5000277;28;20064;-70
2023/11/26 06:22:22;;;;;;;4.90;2.58;;;;;;;1.56;100.00;96626.09;4995000;28;20788;-70
2023/11/26 06:24:48;;;;;;;4.00;2.60;;;;;;;1.59;100.00;96628.16;5008062;28;20492;-70
2023/11/26 06:27:13;;;;;;;8.52;2.40;;;;;;;1.61;100.00;96631.34;4977303;28;20131;-69
2023/11/26 06:29:39;;;;;;;7.55;2.38;;;;;;;1.65;100.00;96634.22;5006894;28;20492;-70
2023/11/26 06:32:04;;;;;;;4.60;2.17;;;;;;;1.61;100.00;96630.56;5004759;28;20100;-67
2023/11/26 06:34:31;;;;;;;7.70;2.50;;;;;;;1.62;100.00;96645.63;5000233;28;20038;-68
2023/11/26 06:36:57;;;;;;;6.88;2.60;;;;;;;1.64;100.00;96654.22;5008097;28;20041;-70
2023/11/26 06:39:24;;;;;;;3.55;2.20;;;;;;;1.58;100.00;96650.06;5005548;28;20403;-69
2023/11/26 06:41:49;;;;;;;5.55;2.28;;;;;;;1.52;100.00;96655.59;5006302;28;20053;-69
2023/11/26 06:44:14;;;;;;;5.13;2.60;;;;;;;1.47;100.00;96652.22;4984660;28;20396;-69
2023/11/26 06:46:41;;;;;;;4.50;2.33;;;;;;;1.45;100.00;96663.34;5003254;28;20484;-69
2023/11/26 06:49:06;;;;;;;7.03;2.30;;;;;;;1.50;100.00;96649.72;4997939;28;20480;-69
2023/11/26 06:51:31;;;;;;;4.75;2.45;;;;;;;1.49;100.00;96660.81;5006725;28;20104;-69
2023/11/26 06:53:57;;;;;;;3.17;2.35;;;;;;;1.57;100.00;96660.09;5003961;28;20657;-69
2023/11/26 06:56:22;;;;;;;4.32;2.38;;;;;;;1.58;100.00;96667.06;4995837;28;20519;-70
2023/11/26 06:58:48;;;;;;;3.17;2.20;;;;;;;1.58;100.00;96668.97;4999076;28;20042;-70
2023/11/26 07:01:14;;;;;;;5.03;2.47;;;;;;;1.56;100.00;96671.97;4994385;28;20499;-69
2023/11/26 07:03:40;;;;;;;5.88;2.75;;;;;;;1.56;100.00;96674.69;5007666;28;20114;-68
2023/11/26 07:06:07;;;;;;;4.50;2.40;;;;;;;1.56;100.00;96677.38;4998499;28;20058;-69
2023/11/26 07:08:33;;;;;;;4.18;2.30;;;;;;;1.56;100.00;96669.28;5010179;28;20057;-69
2023/11/26 07:10:59;;;;;;;11.10;3.53;;;;;;;1.59;100.00;96665.19;5004321;28;20586;-69
2023/11/26 07:13:25;;;;;;;7.50;4.53;;;;;;;1.48;100.00;96675.44;4999337;28;20058;-69
2023/11/26 07:15:51;;;;;;;11.95;3.55;;;;;;;1.50;100.00;96679.41;5006990;28;20034;-69
2023/11/26 07:18:18;;;;;;;6.82;3.63;;;;;;;1.55;100.00;96678.50;5011865;28;20128;-70
2023/11/26 07:20:45;;;;;;;9.25;3.58;;;;;;;1.54;100.00;96687.69;5010821;28;20594;-70
2023/11/26 07:23:11;;;;;;;6.30;3.17;;;;;;;1.48;100.00;96691.63;5005183;28;20069;-68
2023/11/26 07:25:37;;;;;;;5.50;2.83;;;;;;;1.47;100.00;96690.03;5003253;28;20076;-68
2023/11/26 07:28:03;;;;;;;6.32;3.05;;;;;;;1.59;100.00;96690.25;5003103;28;20045;-69
2023/11/26 07:30:29;;;;;;;4.40;3.15;;;;;;;1.51;100.00;96691.00;5007104;28;20555;-69
2023/11/26 07:32:55;;;;;;;7.22;3.08;;;;;;;1.44;100.00;96704.13;4997526;28;20041;-69
2023/11/26 07:35:20;;;;;;;5.28;3.00;;;;;;;1.48;100.00;96700.50;5010553;28;20492;-69
2023/11/26 07:37:46;;;;;;;6.10;2.92;;;;;;;1.54;100.00;96698.47;4999503;28;20061;-68
2023/11/26 07:40:15;;;;;;;7.45;3.30;;;;;;;1.65;100.00;96701.72;5005751;28;20046;-69
2023/11/26 07:42:41;;;;;;;4.13;2.65;;;;;;;1.63;100.00;96712.03;5005846;28;20049;-69
2023/11/26 07:45:11;;;;;;;5.45;2.78;;;;;;;1.58;100.00;96710.25;4994417;28;20148;-68
2023/11/26 07:47:36;;;;;;;;;;;;;;;1.61;100.00;96714.25;5007596;28;20041;-69
2023/11/26 07:50:02;;;;;;;5.65;2.63;;;;;;;1.42;100.00;96719.84;5003205;28;20372;-67
2023/11/26 07:52:27;;;;;;;5.82;3.28;;;;;;;1.25;100.00;96723.22;4997562;28;20042;-68
2023/11/26 07:54:53;;;;;;;3.70;2.70;;;;;;;1.13;100.00;96719.16;5010960;28;20072;-69
2023/11/26 07:57:19;;;;;;;10.77;3.60;;;;;;;1.11;100.00;96721.34;4998982;28;20046;-69
2023/11/26 07:59:44;;;;;;;6.97;3.47;;;;;;;1.11;100.00;96725.94;5011093;28;20120;-69
2023/11/26 08:02:13;;;;;;;8.25;3.30;;;;;;;1.04;100.00;96723.66;5015020;28;20105;-68
2023/11/26 08:04:38;;;;;;;5.10;3.57;;;;;;;1.10;100.00;96718.97;4993007;28;20045;-69
2023/11/26 08:07:05;;;;;;;6.60;3.10;;;;;;;1.17;100.00;96711.25;5005850;28;20052;-68
2023/11/26 08:09:32;;;;;;;6.35;3.22;;;;;;;1.30;100.00;96718.50;4990636;28;20073;-68
2023/11/26 08:12:10;;;;;;;9.65;4.10;;;;;;;1.26;100.00;96720.22;5014643;28;20041;-68
2023/11/26 08:14:36;;;;;;;11.55;3.80;;;;;;;1.40;100.00;96719.34;4988859;28;20041;-68
2023/11/26 08:17:04;;;;;;;6.25;3.38;;;;;;;1.65;100.00;96729.50;4999190;28;20052;-69
2023/11/26 08:19:29;;;;;;;9.48;3.55;;;;;;;1.85;100.00;96724.72;5015336;28;20050;-69
2023/11/26 08:21:55;;;;;;;8.75;3.72;;;;;;;2.05;100.00;96724.19;5008302;28;20053;-71
2023/11/26 08:24:22;;;;;;;8.02;3.15;;;;;;;2.13;100.00;96725.34;4993383;28;20570;-69
2023/11/26 08:26:47;;;;;;;7.25;3.80;;;;;;;2.08;100.00;96722.78;4999882;28;20125;-70
2023/11/26 08:29:16;;;;;;;6.78;3.20;;;;;;;2.20;100.00;96727.59;5004782;28;20472;-69
2023/11/26 08:31:42;;;;;;;5.65;3.08;;;;;;;2.17;100.00;96736.31;5010534;28;20108;-70
2023/11/26 08:34:09;;;;;;;5.97;2.75;;;;;;;2.51;100.00;96724.06;5005496;28;20556;-69
2023/11/26 08:36:43;;;;;;;8.20;2.88;;;;;;;2.48;100.00;96720.88;5002334;28;20046;-68
2023/11/26 08:39:27;;;;;;;6.55;2.85;;;;;;;2.56;100.00;96730.13;5002843;28;20042;-69
2023/11/26 08:41:53;;;;;;;8.13;3.40;;;;;;;2.71;100.00;96731.59;5002368;28;20049;-68
2023/11/26 08:44:19;;;;;;;5.80;3.30;;;;;;;2.73;100.00;96736.69;4997142;28;20128;-69
2023/11/26 08:46:45;;;;;;;7.75;2.55;;;;;;;2.74;100.00;96740.97;5002252;28;20034;-69
2023/11/26 08:49:15;;;;;;;6.95;2.47;;;;;;;2.86;100.00;96746.56;5004563;28;20048;-68
2023/11/26 08:51:41;;;;;;;8.48;2.35;;;;;;;2.82;100.00;96742.91;5016102;28;20041;-69
2023/11/26 08:54:06;;;;;;;5.15;2.80;;;;;;;2.89;100.00;96754.06;5011804;28;20104;-69
2023/11/26 08:56:32;;;;;;;4.45;2.10;;;;;;;2.90;100.00;96749.44;5004899;28;20136;-69
2023/11/26 08:58:57;;;;;;;7.05;2.53;;;;;;;2.93;100.00;96748.81;5006544;28;20046;-69
2023/11/26 09:01:23;;;;;;;6.60;2.60;;;;;;;3.15;100.00;96747.88;4995979;28;20866;-69
2023/11/26 09:03:48;;;;;;;4.80;2.72;;;;;;;3.11;100.00;96750.44;5001482;28;20050;-69
2023/11/26 09:06:14;;;;;;;7.25;2.95;;;;;;;3.06;100.00;96745.97;5013176;28;20043;-69
2023/11/26 09:08:39;;;;;;;4.68;3.10;;;;;;;3.14;100.00;96736.28;5010167;28;20100;-68
2023/11/26 09:11:06;;;;;;;5.82;2.60;;;;;;;2.96;100.00;96738.16;4995236;28;20042;-68
2023/11/26 09:13:31;;;;;;;5.60;2.55;;;;;;;3.01;100.00;96731.81;5011332;28;20073;-69
2023/11/26 09:15:59;;;;;;;7.15;3.45;;;;;;;3.12;100.00;96733.09;5016448;28;20073;-69
2023/11/26 09:18:24;;;;;;;6.47;3.10;;;;;;;3.12;100.00;96735.00;4999906;28;20508;-69
2023/11/26 09:20:50;;;;;;;4.45;2.55;;;;;;;3.31;100.00;96746.28;5006972;28;20042;-68
2023/11/26 09:23:15;;;;;;;7.85;2.67;;;;;;;3.27;100.00;96739.94;4979525;28;20096;-68
2023/11/26 09:25:41;;;;;;;6.70;3.25;;;;;;;3.32;100.00;96745.19;4986452;28;20469;-67
2023/11/26 09:28:07;;;;;;;6.32;2.75;;;;;;;3.14;100.00;96743.59;4996114;28;20092;-68
2023/11/26 09:30:32;;;;;;;8.43;2.58;;;;;;;3.24;100.00;96735.16;5000232;28;20572;-69
2023/11/26 09:32:59;;;;;;;7.78;2.92;;;;;;;3.12;100.00;96735.78;5010134;28;20206;-69
2023/11/26 09:35:24;;;;;;;5.53;2.42;;;;;;;2.85;100.00;96734.97;5014942;28;20049;-70
2023/11/26 09:37:49;;;;;;;4.20;2.55;;;;;;;2.90;100.00;96734.03;4994883;28;20186;-70
2023/11/26 09:40:15;;;;;;;7.82;2.63;;;;;;;2.96;100.00;96724.63;5004937;28;20048;-70
2023/11/26 09:42:47;;;;;;;6.82;2.40;;;;;;;3.59;100.00;96722.41;5020402;28;20556;-70
2023/11/26 09:45:13;;;;;;;2.75;1.98;;;;;;;4.13;100.00;96735.53;5015165;28;20707;-69
2023/11/26 09:47:39;;;;;;;7.50;2.08;;;;;;;4.27;100.00;96727.19;5020470;28;20045;-69
2023/11/26 09:50:05;;;;;;;4.53;2.10;;;;;;;4.34;100.00;96724.78;5007673;28;20041;-68
2023/11/26 09:52:31;;;;;;;6.35;2.25;;;;;;;4.07;100.00;96725.16;5008970;28;20076;-69
2023/11/26 09:54:57;;;;;;;3.22;1.90;;;;;;;4.08;100.00;96740.31;4993981;28;20080;-69
2023/11/26 09:57:23;;;;;;;6.78;2.63;;;;;;;4.10;100.00;96740.78;5005018;28;20584;-70
2023/11/26 09:59:48;;;;;;;3.83;1.70;;;;;;;4.19;100.00;96738.84;5005063;28;20193;-68
2023/11/26 10:02:13;;;;;;;4.72;2.33;;;;;;;3.99;100.00;96740.34;5007776;28;20496;-70
2023/11/26 10:04:46;;;;;;;5.50;2.05;;;;;;;3.96;100.00;96738.28;5013859;28;20064;-70
2023/11/26 10:07:11;;;;;;;4.75;2.30;;;;;;;3.88;100.00;96736.38;5008405;28;20046;-69
2023/11/26 10:09:37;;;;;;;5.60;2.10;;;;;;;3.64;100.00;96726.88;5008641;28;20408;-69
2023/11/26 10:12:03;;;;;;;3.38;2.08;;;;;;;3.87;100.00;96723.94;5010873;28;20038;-69
2023/11/26 10:14:29;;;;;;;3.88;1.88;;;;;;;3.81;100.00;96721.41;5013129;28;20072;-69
2023/11/26 10:16:54;;;;;;;4.97;2.08;;;;;;;3.54;100.00;96733.41;5024263;28;20037;-70
2023/11/26 10:19:25;;;;;;;4.28;2.30;;;;;;;3.82;100.00;96722.22;5006867;28;20048;-70
2023/11/26 10:22:00;;;;;;;5.75;1.98;;;;;;;3.80;100.00;96717.13;4994068;28;20064;-70
2023/11/26 10:24:29;;;;;;;7.63;2.15;;;;;;;3.62;100.00;96718.28;5004402;28;20045;-69
2023/11/26 10:26:57;;;;;;;5.78;2.13;;;;;;;3.73;100.00;96714.09;5004757;28;20044;-68
2023/11/26 10:29:30;;;;;;;4.40;2.40;;;;;;;3.79;100.00;96717.44;5004913;28;20080;-69
2023/11/26 10:32:03;;;;;;;6.35;3.22;;;;;;;3.54;100.00;96710.94;5012799;28;20794;-69
2023/11/26 10:34:33;;;;;;;6.40;2.58;;;;;;;3.38;100.00;96711.41;4999343;28;20050;-69
2023/11/26 10:36:59;;;;;;;5.63;2.30;;;;;;;3.52;100.00;96708.56;5011283;28;20467;-69
2023/11/26 10:39:24;;;;;;;4.45;2.20;;;;;;;3.58;100.00;96709.19;4989968;28;20111;-70
2023/11/26 10:41:50;;;;;;;4.32;2.50;;;;;;;3.39;100.00;96710.31;4998616;28;20045;-70
2023/11/26 10:44:17;;;;;;;17.55;7.72;;;;;;;3.23;100.00;96699.16;5005342;28;20046;-68
2023/11/26 10:46:48;;;;;;;7.18;3.13;;;;;;;3.19;100.00;96706.34;5011019;28;20129;-69
2023/11/26 10:49:48;;;;;;;5.53;3.22;;;;;;;3.30;100.00;96704.13;4993057;28;20049;-69
2023/11/26 10:52:38;;;;;;;7.28;2.80;;;;;;;3.36;100.00;96702.03;4978136;28;20038;-69
2023/11/26 10:55:18;;;;;;;9.77;3.20;;;;;;;3.29;100.00;96707.91;5004075;28;20063;-67
2023/11/26 10:57:48;;;;;;;5.80;3.00;;;;;;;3.40;100.00;96702.97;4989443;28;20042;-69
2023/11/26 11:00:21;;;;;;;4.00;2.85;;;;;;;3.37;100.00;96706.34;4994868;28;20381;-69
2023/11/26 11:02:50;;;;;;;12.00;4.25;;;;;;;3.60;100.00;96698.81;5012074;28;20071;-69
2023/11/26 11:05:22;;;;;;;5.90;3.00;;;;;;;3.58;100.00;96699.16;5008822;28;20052;-69
2023/11/26 11:07:48;;;;;;;14.15;5.85;;;;;;;3.78;100.00;96699.56;5001180;28;20388;-67
2023/11/26 11:10:36;;;;;;;6.30;2.90;;;;;;;3.92;100.00;96697.47;4994236;28;20400;-68
2023/11/26 11:13:19;;;;;;;5.03;1.95;;;;;;;4.12;100.00;96706.81;5005101;28;20109;-67
2023/11/26 11:15:45;;;;;;;6.85;2.28;;;;;;;3.81;100.00;96713.28;5006718;28;20042;-68
2023/11/26 11:18:25;;;;;;;4.30;2.55;;;;;;;3.81;100.00;96698.94;5008385;28;20041;-68
2023/11/26 11:21:09;;;;;;;5.28;2.20;;;;;;;3.76;100.00;96704.53;5007600;28;20108;-69
2023/11/26 11:23:53;;;;;;;5.40;2.10;;;;;;;3.38;100.00;96702.50;5021151;28;20159;-69
2023/11/26 11:26:20;;;;;;;4.55;2.10;;;;;;;3.12;100.00;96700.59;5007778;28;20061;-70
2023/11/26 11:28:48;;;;;;;3.95;2.22;;;;;;;3.23;100.00;96703.78;5003290;28;20522;-73
2023/11/26 11:31:15;;;;;;;4.93;2.47;;;;;;;3.27;100.00;96699.31;5009533;28;20458;-72
2023/11/26 11:33:55;;;;;;;3.13;2.15;;;;;;;3.32;100.00;96709.22;5011472;28;20087;-69
2023/11/26 11:36:49;;;;;;;7.45;2.80;;;;;;;3.42;100.00;96723.22;4997073;28;20034;-70
2023/11/26 11:39:25;;;;;;;4.40;2.25;;;;;;;3.34;100.00;96707.75;4981064;28;20045;-70